Original METAR for KAFP:
191900Z 21006KT 10SM CLR 29/14 A2993 RMK AO2 T02920137

Wind: 210° at 6 knots
Visibility: 10 statute miles
Sky conditions: Clear
Temperature: 84.2°F
Dew Point: 57.2°F
Altimeter: 29.93

Remarks:
-- METAR generated by an automated station with a precipitation discriminator.
-- Precise hourly temperature and dew point: 29.2°C / 13.7°C

NOTE:
This METAR was retrieved from metars.com at:
http://www.metars.com/stations/KAFP.html


Cessnas2Oshkosh, C2O, CessnaBaseCamp and The Pirep
are trademarks of Cessnas 2 Oshkosh, Inc. - Dothan, AL
| Testimonials | Donations | FAQ | Privacy | Contact Us
Copyright ©2008-2024 Cessnas 2 Oshkosh, Inc. All rights reserved.